İstanbul, Türkiye

Saat: 01:26 PM EEST Tarih: 30 Ağustos 2014 (GMT +0300)
Ataturk | Change Station
CLOSE
Current Station
Hava Meydanı
Location: Istanbul,
Yükseklik: 121 ft
Nearby Weather Stations

Elev 121 ft 40.98 °N, 28.81 °E | Updated 36 minutes ago

Mostly Cloudy
Çok Bulutlu
75
Feels Like 75
N
15
Rüzgar Değişken Rüzgar from KD

Bugün
High -- | Low -- F°
--% Chance of Precip.
Dün
High -- | Low -- F°
Precip. -- inç
6:29 AM 7:40 PM
Hilal, 21% visible
Basınç 30.01 inç
Görüş Uzaklığı 6.2 mil
Bulutlar Çok Bulutlu 2700 ft
Çiğ noktası 64
Nem oranı 69%
Yağış 0.00 inç
Kar Kalınlığı Not available.
4 out of 12
Pollen Not available.
Hava Kalitesi Not available.
Flu Activity Not available.
METAR LTBA 300950Z 05013KT 020V090 9999 BKN027 24/18 Q1016 NOSIG RMK RWY17L 06017KT 020V090 RWY05 05017KT RWY23 05016KT

More Conditions Fewer Conditions

Basınç 30.01 inç
Görüş Uzaklığı 6.2 mil
Bulutlar Çok Bulutlu 2700 ft
Çiğ noktası 64
Nem oranı 69%
Yağış 0.00 inç
Kar Kalınlığı Not available.
4 out of 12
Pollen Not available.
Hava Kalitesi Not available.
Flu Activity Not available.
METAR LTBA 300950Z 05013KT 020V090 9999 BKN027 24/18 Q1016 NOSIG RMK RWY17L 06017KT 020V090 RWY05 05017KT RWY23 05016KT

More Conditions Fewer Conditions

10-Day Weather Forecast

Almanac

Gökbilim

Aug. 30, 2014 Rise Set
Gerçek Zaman 06:29 EEST 19:40 EEST
Günlük Tan 06:00 EEST 20:09 EEST
Deniz Tanı 05:26 EEST 20:43 EEST
Geceyarısı Yıldız Zamanı 04:51 EEST 21:18 EEST
Ay 10:59 EEST 22:00 EEST
Görünür Işığın Uzunluğu 14h 08m
Günün Uzunluğu
13h 11m
Tomorrow will be 2m 37s shorter.
Hilal, 21% of the Moon is Illuminated
Bugün
Hilal
Sep 2
İlk Hilãl
Sep 8
Dolunay
Sep 15
Son Hilãl
Sep 24
New

Yesterday's Extremes

Country Highs Country Lows

Community

WunderPhotos

Upload Photos

1,748,482 photos uploaded!

Nearby

Kar Kalınlığı

Not available.

Earthquake Activity

Şehir Distance Mag. Time & Date
No recent earthquake activity has been reported nearby.
Minimum magnitude displayed is 2.5.

Coastal Water Temperatures

Yer Sıcaklık
No Stations Reporting

Nearby Weather Stations